Aérodrome :
LOGIN :

S'inscrire | Disclaimer

   EN    FR    IT 

 










Légende :    VFR   VFR Marginal   IFR   IFR Intensif   IFR Très Intensif
Visi : 
Plafond : 
>= 8 km
>= 3000ft
5 à 8 km
1000 à 3000 ft
1500m à 5 km
500 à 1000 ft
800 à 1500m
200 à 500 ft
< 800m
< 200 ft
Symboles :   Orages  Brouillard  Fortes neiges  Fortes précipitations  Vent > 20 kt
SIGMETs :   Divers  Orages  Givrage  Turbulence  Onde Orograph.  Cendres Volcan.







- Altitude de l'aérodrome : -15 ft
- Code IATA : RTM


EHRD - Rotterdam Zestienhoven

DERNIER METAR :
  • 292055Z AUTO 05006KT 9999 NCD 07/03 Q1016 NOSIG

METARs EXPIRÉS :
  • 292025Z AUTO 08004KT 020V120 9999 NSC 07/03 Q1016 NOSIG
  • 291955Z AUTO 08004KT 9999 NSC 07/03 Q1016 NOSIG
  • 291925Z AUTO 09005KT 9999 NCD 08/03 Q1016 NOSIG
  • 291855Z AUTO 10006KT 070V130 9999 NCD 10/03 Q1016 NOSIG
  • 291825Z AUTO 10008KT 070V130 9999 NSC 11/03 Q1016 NOSIG

TAF TAF EHRD
Valide du 29 à 18h jusqu'au 01 à 00h UTC


291709Z 2918/3024 10007KT CAVOK
BECMG 3005/3008 11014KT
BECMG 3009/3012 13020G30KT
BECMG 3016/3019 11015KT
Pas de NOTAMs connus pour ce terrain.



MET'MAP, la Météo Aéronautique d'un coup d'oeil ! - Copyright ORBIFLY Décembre 2007 - Disclaimer

ORBIFLY MET'MAP TEAM :

Programmation & Développement : Alexandra Zaïnal
Conception & Développement : Baudouin d'Aumeries
Co-Programmation & Développement : Marc-Olivier Méhu
Soutien technique & logistique : Manuel Goepfert

Contact : metmap@orbifly.com




SOURCES & CREDITS :

   NOAA